Rockland, ME

03:05 AM EDT del 30 Marzo 2015 (GMT -0400)
Upper Park Street | | Change Station
CLOSE
Current Station
Stazione meteo personale
Location: Rockland, ME
Altitudine: 79 ft
Stazioni meteo nelle vicinanze

Alt. 79 ft 44.10 °N, 69.13 °W | Updated 29 seconds ago

Sereno
Sereno
32.7 °F
Sembra 29 °F
N
3.7
Vento Variabile Vento da SSO
Gusts 4.0 mph

Oggi
Massima -- | Minima -- °F
--% Possibilità di precip.
Ieri
Massima -- | Minima -- °F
Precip. -- in
6:21 AM 7:00 PM
Gobba a ponente, 77% visible
Pressione 29.98 in
Visibilità 10.0 miglia
Nuvole Sereno
Raffreddamento del vento 29 °F
Punto di rugiada 29 °F
Umidità 83%
Piovosità 0.00 in
Spessore del manto nevoso Non disponibile.
Raggi UV 0 fuori da 12
Polline 1.80 fuori da 12
Qualità dell'aria Non disponibile.
Flu Activity Non disponibile.
METAR KRKD 300655Z AUTO 22005KT 10SM CLR 01/M03 A2998 RMK AO1

More Conditions Fewer Conditions

Pressione 29.98 in
Visibilità 10.0 miglia
Nuvole Sereno
Raffreddamento del vento 29 °F
Punto di rugiada 29 °F
Umidità 83%
Piovosità 0.00 in
Spessore del manto nevoso Non disponibile.
Raggi UV 0 fuori da 12
Polline 1.80 fuori da 12
Qualità dell'aria Non disponibile.
Flu Activity Non disponibile.
METAR KRKD 300655Z AUTO 22005KT 10SM CLR 01/M03 A2998 RMK AO1

More Conditions Fewer Conditions

10-Day Weather Forecast

Almanac

Astronomia

Mar. 30, 2015 Alba Tramonto
Ora attuale
Crepuscolo civile
Crepuscolo nautico
Crepuscolo astronomico
Luna
Estensione della luce visibile
Lunghezza del giorno
Tomorrow will be .
, % of the Moon is Illuminated

Gli estremi di oggi

State Highs State Lows

Community

WunderPhotos

Upload Photos

1,809,449 foto caricate!

WunderBlogs® & News

Nearby

Qualità dell'aria

  Qualità dell'aria Indice AQ Inquinante
Not available.

Profondità neve

Stazione Profondità Altitudine

Attività sismica

Città  Distanza Mag. Data & Ora
Minimo Magnitudo Mostrato è 2.5.

Temperature delle acque costiere

Località Temperatura

Stations

Stazioni meteo nelle vicinanze

Ubicazione della stazione Temp. Raffreddamento del vento Punto di rugiada Umidità Vento Precip. Alt. Aggiornato Tipo